Time;durP1;ratioP1;P1;durP2;ratioP2;P2;SDS_P1;SDS_P2;PMS_P1;PMS_P2;Temp;Humidity;BMP_temperature;BMP_pressure;BME280_temperature;BME280_humidity;BME280_pressure;Samples;Min_cycle;Max_cycle;Signal;HPM_P1;HPM_P2
2021/12/02 00:01:25;;;;;;;0.20;0.00;;;9.70;99.90;;;;;;4982257;28;19939;-67
2021/12/02 00:03:51;;;;;;;0.52;0.10;;;9.70;99.90;;;;;;4966235;28;20048;-67
2021/12/02 00:06:19;;;;;;;0.55;0.10;;;9.70;99.90;;;;;;4983187;28;20045;-67
2021/12/02 00:08:46;;;;;;;0.30;0.10;;;9.70;99.90;;;;;;4966348;28;20038;-67
2021/12/02 00:11:13;;;;;;;0.55;0.10;;;9.80;99.90;;;;;;4982467;28;20062;-70
2021/12/02 00:14:06;;;;;;;0.55;0.10;;;9.80;99.90;;;;;;4982905;28;20089;-70
2021/12/02 00:16:40;;;;;;;1.10;0.13;;;9.80;99.90;;;;;;4982508;28;20388;-70
2021/12/02 00:21:54;;;;;;;0.38;0.10;;;9.70;99.90;;;;;;4983214;28;20069;-70
2021/12/02 00:24:24;;;;;;;0.25;0.00;;;9.70;99.90;;;;;;4965468;28;20034;-69
2021/12/02 00:26:51;;;;;;;0.30;0.03;;;9.70;99.90;;;;;;4983313;28;20022;-70
2021/12/02 00:29:20;;;;;;;0.17;0.00;;;9.70;99.90;;;;;;4965293;28;20253;-69
2021/12/02 00:31:48;;;;;;;2.05;0.25;;;9.70;99.90;;;;;;4956580;28;20027;-70
2021/12/02 00:34:14;;;;;;;0.87;0.30;;;9.70;99.90;;;;;;4965233;28;20062;-69
2021/12/02 00:36:41;;;;;;;0.55;0.10;;;9.70;99.90;;;;;;4965794;28;20027;-69
2021/12/02 00:39:16;;;;;;;0.32;0.10;;;9.70;99.90;;;;;;4964949;28;20023;-75
2021/12/02 00:41:43;;;;;;;0.25;0.10;;;9.70;99.90;;;;;;4982845;28;20064;-69
2021/12/02 00:44:10;;;;;;;2.15;0.00;;;9.70;99.90;;;;;;4982044;28;20309;-69
2021/12/02 00:46:38;;;;;;;0.20;0.00;;;9.60;99.90;;;;;;4963679;28;20201;-69
2021/12/02 00:49:11;;;;;;;0.20;0.00;;;9.70;99.90;;;;;;4965832;28;20022;-74
2021/12/02 00:51:38;;;;;;;0.30;0.10;;;9.70;99.90;;;;;;4982850;28;20380;-68
2021/12/02 00:54:06;;;;;;;0.20;0.00;;;9.70;99.90;;;;;;4982776;28;20023;-73
2021/12/02 00:56:33;;;;;;;0.20;0.05;;;9.70;99.90;;;;;;4965557;28;20046;-68
2021/12/02 00:58:59;;;;;;;0.10;0.00;;;9.70;99.90;;;;;;4982614;28;20047;-68
2021/12/02 01:01:27;;;;;;;0.20;0.00;;;9.80;99.90;;;;;;4981767;28;20308;-68
2021/12/02 01:03:56;;;;;;;0.95;0.30;;;9.80;99.90;;;;;;4982904;28;20163;-67
2021/12/02 01:06:23;;;;;;;0.10;0.00;;;9.80;99.90;;;;;;4982331;28;20027;-68
2021/12/02 01:08:48;;;;;;;0.40;0.10;;;9.80;99.90;;;;;;4982875;28;20034;-68
2021/12/02 01:11:16;;;;;;;0.30;0.00;;;9.70;99.90;;;;;;4967143;28;20226;-68
2021/12/02 01:13:42;;;;;;;0.50;0.05;;;9.70;99.90;;;;;;4969529;28;20018;-68
2021/12/02 01:16:07;;;;;;;0.13;0.00;;;9.70;99.90;;;;;;4969223;28;20033;-77
2021/12/02 01:18:33;;;;;;;0.32;0.08;;;9.60;99.90;;;;;;4986896;28;20070;-70
2021/12/02 01:21:02;;;;;;;0.15;0.03;;;9.60;99.90;;;;;;4986825;28;20029;-69
2021/12/02 01:23:29;;;;;;;;;;;9.50;99.90;;;;;;4986539;28;20175;-69
2021/12/02 01:26:00;;;;;;;0.13;0.00;;;9.60;99.90;;;;;;4969217;28;19906;-69
2021/12/02 01:28:26;;;;;;;0.28;0.10;;;9.60;99.90;;;;;;4986133;28;20049;-69
2021/12/02 01:30:53;;;;;;;1.90;0.00;;;9.60;99.90;;;;;;4968959;28;20023;-70
2021/12/02 01:33:21;;;;;;;0.10;0.00;;;9.70;99.90;;;;;;4968481;28;20034;-70
2021/12/02 01:35:54;;;;;;;0.32;0.17;;;9.70;99.90;;;;;;4986573;28;20041;-69
2021/12/02 01:38:23;;;;;;;2.10;0.10;;;9.70;99.90;;;;;;4985730;28;20061;-69
2021/12/02 01:40:49;;;;;;;0.40;0.10;;;9.70;99.90;;;;;;4969136;28;20029;-70
2021/12/02 01:43:18;;;;;;;1.45;0.10;;;9.70;99.90;;;;;;4968143;28;20205;-70
2021/12/02 01:45:44;;;;;;;0.20;0.00;;;9.70;99.90;;;;;;4986038;28;20034;-71
2021/12/02 01:48:11;;;;;;;0.35;0.15;;;9.60;99.90;;;;;;4985181;28;20229;-77
2021/12/02 01:50:39;;;;;;;0.03;0.00;;;9.60;99.90;;;;;;4968452;28;20054;-70
2021/12/02 01:53:05;;;;;;;;;;;9.60;99.90;;;;;;4969002;28;20019;-69
2021/12/02 01:55:34;;;;;;;0.80;0.20;;;9.70;99.90;;;;;;4967762;28;20297;-69
2021/12/02 01:58:05;;;;;;;1.30;0.10;;;9.70;99.90;;;;;;4968671;28;20042;-69
2021/12/02 02:00:43;;;;;;;1.05;0.45;;;9.70;99.90;;;;;;4967803;28;20046;-69
2021/12/02 02:03:11;;;;;;;2.05;0.63;;;9.70;99.90;;;;;;4966536;29;20027;-76
2021/12/02 02:05:37;;;;;;;0.43;0.20;;;9.60;99.90;;;;;;4966801;28;20018;-68
2021/12/02 02:08:10;;;;;;;0.32;0.13;;;9.70;99.90;;;;;;4968490;28;20030;-68
2021/12/02 02:10:37;;;;;;;0.73;0.20;;;9.70;99.90;;;;;;4984676;28;20018;-68
2021/12/02 02:13:07;;;;;;;3.50;0.10;;;9.70;99.90;;;;;;4968060;28;20094;-68
2021/12/02 02:15:33;;;;;;;0.50;0.10;;;9.70;99.90;;;;;;4967493;28;20094;-68
2021/12/02 02:18:20;;;;;;;0.20;0.00;;;9.60;99.90;;;;;;4977486;28;20058;-68
2021/12/02 02:23:30;;;;;;;0.30;0.00;;;9.60;99.90;;;;;;4965764;29;20130;-71
2021/12/02 02:25:57;;;;;;;1.60;0.10;;;9.60;99.90;;;;;;4982992;28;20023;-69
2021/12/02 02:28:23;;;;;;;0.75;0.47;;;9.60;99.90;;;;;;4984781;28;20035;-69
2021/12/02 02:30:49;;;;;;;0.40;0.10;;;9.50;99.90;;;;;;4967952;28;20105;-69
2021/12/02 02:33:17;;;;;;;0.30;0.10;;;9.60;99.90;;;;;;4984603;28;20026;-74
2021/12/02 02:35:43;;;;;;;0.60;0.10;;;9.50;99.90;;;;;;4954064;28;20027;-76
2021/12/02 02:38:28;;;;;;;0.30;0.00;;;9.50;99.90;;;;;;4957355;28;20066;-71
2021/12/02 02:40:56;;;;;;;0.10;0.08;;;9.40;99.90;;;;;;4943372;28;20015;-74
2021/12/02 02:43:23;;;;;;;1.10;0.20;;;9.40;99.90;;;;;;4945577;28;20566;-75
2021/12/02 02:45:49;;;;;;;0.20;0.05;;;9.40;99.90;;;;;;4964778;28;20092;-69
2021/12/02 02:48:15;;;;;;;0.40;0.00;;;9.40;99.90;;;;;;4963458;28;20035;-76
2021/12/02 02:50:41;;;;;;;0.25;0.10;;;9.40;99.90;;;;;;4956412;28;20322;-68
2021/12/02 02:53:15;;;;;;;0.15;0.00;;;9.50;99.90;;;;;;4944246;28;20027;-69
2021/12/02 02:55:43;;;;;;;0.55;0.52;;;9.40;99.90;;;;;;4965450;28;20090;-68
2021/12/02 03:03:52;;;;;;;0.47;0.10;;;9.40;99.90;;;;;;4951426;28;20031;-76
2021/12/02 03:09:14;;;;;;;0.45;0.05;;;9.40;99.90;;;;;;4960338;28;20030;-69
2021/12/02 03:11:47;;;;;;;0.10;0.00;;;9.40;99.90;;;;;;4966956;28;20019;-69
2021/12/02 03:14:19;;;;;;;1.60;0.03;;;9.40;99.90;;;;;;4966781;28;20035;-75
2021/12/02 03:16:46;;;;;;;0.50;0.10;;;9.40;99.90;;;;;;4965312;28;20258;-68
2021/12/02 03:19:13;;;;;;;0.50;0.05;;;9.40;99.90;;;;;;4974072;28;20195;-68
2021/12/02 03:21:39;;;;;;;0.70;0.00;;;9.40;99.90;;;;;;4975153;28;20019;-69
2021/12/02 03:24:05;;;;;;;0.20;0.00;;;9.40;99.90;;;;;;4969387;28;20027;-69
2021/12/02 03:26:32;;;;;;;0.20;0.00;;;9.40;99.90;;;;;;4973738;28;20015;-69
2021/12/02 03:28:59;;;;;;;0.35;0.10;;;9.40;99.90;;;;;;4986616;28;20274;-68
2021/12/02 03:31:25;;;;;;;0.43;0.10;;;9.40;99.90;;;;;;4974384;28;20034;-68
2021/12/02 03:33:51;;;;;;;1.58;0.10;;;9.40;99.90;;;;;;4967422;28;20029;-68
2021/12/02 03:36:17;;;;;;;0.10;0.00;;;9.40;99.90;;;;;;4990518;28;20181;-75
2021/12/02 03:38:44;;;;;;;0.43;0.10;;;9.50;99.90;;;;;;4966904;28;20210;-68
2021/12/02 03:41:10;;;;;;;0.65;0.45;;;9.40;99.90;;;;;;4966221;28;20026;-68
2021/12/02 03:43:38;;;;;;;0.35;0.10;;;9.40;99.90;;;;;;4965585;28;20107;-68
2021/12/02 03:46:04;;;;;;;0.52;0.08;;;9.40;99.90;;;;;;4966686;28;20026;-68
2021/12/02 03:48:30;;;;;;;0.35;0.10;;;9.40;99.90;;;;;;4983372;28;20026;-68
2021/12/02 03:51:15;;;;;;;0.40;0.10;;;9.40;99.90;;;;;;4983619;28;20060;-69
2021/12/02 03:53:41;;;;;;;0.30;0.10;;;9.30;99.90;;;;;;4975985;28;20080;-68
2021/12/02 03:56:08;;;;;;;0.30;0.00;;;9.40;99.90;;;;;;4991419;28;20385;-69
2021/12/02 03:58:35;;;;;;;0.35;0.00;;;9.40;99.90;;;;;;4975583;28;20025;-68
2021/12/02 04:01:01;;;;;;;0.10;0.00;;;9.40;99.90;;;;;;4974178;28;20023;-68
2021/12/02 04:03:27;;;;;;;2.60;0.20;;;9.40;99.90;;;;;;4988431;28;20038;-67
2021/12/02 04:05:52;;;;;;;0.25;0.00;;;9.40;99.90;;;;;;4990924;28;20146;-68
2021/12/02 04:08:19;;;;;;;0.15;0.08;;;9.40;99.90;;;;;;4975508;28;20039;-75
2021/12/02 04:10:45;;;;;;;0.65;0.00;;;9.40;99.90;;;;;;4989279;28;20011;-68
2021/12/02 04:13:26;;;;;;;0.20;0.00;;;9.40;99.90;;;;;;4973475;28;20222;-68
2021/12/02 04:16:15;;;;;;;0.35;0.00;;;9.40;99.90;;;;;;4964857;28;20033;-68
2021/12/02 04:18:41;;;;;;;0.08;0.00;;;9.40;99.90;;;;;;4984119;28;20034;-67
2021/12/02 04:21:07;;;;;;;0.68;0.00;;;9.40;99.90;;;;;;4977885;28;20025;-67
2021/12/02 04:23:32;;;;;;;0.20;0.00;;;9.30;99.90;;;;;;4987268;28;20034;-67
2021/12/02 04:25:58;;;;;;;1.17;0.10;;;9.40;99.90;;;;;;4967375;28;20197;-67
2021/12/02 04:28:23;;;;;;;0.95;0.00;;;9.40;99.90;;;;;;4987811;28;20098;-68
2021/12/02 04:30:49;;;;;;;1.40;0.00;;;9.40;99.90;;;;;;4993175;28;20025;-71
2021/12/02 04:33:15;;;;;;;3.05;0.13;;;9.40;99.90;;;;;;4991914;28;20023;-67
2021/12/02 04:35:40;;;;;;;0.38;0.00;;;9.40;99.90;;;;;;4988364;28;20023;-66
2021/12/02 04:38:06;;;;;;;0.63;0.05;;;9.40;99.90;;;;;;4990651;28;20026;-70
2021/12/02 04:40:32;;;;;;;0.90;0.00;;;9.30;99.90;;;;;;4970797;28;20015;-67
2021/12/02 04:42:57;;;;;;;0.47;0.05;;;9.30;99.90;;;;;;4988302;28;20019;-67
2021/12/02 04:45:23;;;;;;;1.15;0.15;;;9.30;99.90;;;;;;4988348;28;20217;-68
2021/12/02 04:47:49;;;;;;;2.67;0.10;;;9.30;99.90;;;;;;4992173;28;20209;-67
2021/12/02 04:50:14;;;;;;;0.20;0.10;;;9.30;99.90;;;;;;4991445;28;20046;-69
2021/12/02 04:52:40;;;;;;;0.82;0.00;;;9.30;99.90;;;;;;4976128;28;20189;-68
2021/12/02 04:55:25;;;;;;;2.13;0.10;;;9.30;99.90;;;;;;4974404;28;20022;-68
2021/12/02 04:57:51;;;;;;;1.98;0.10;;;9.30;99.90;;;;;;4990021;28;20034;-67
2021/12/02 05:00:17;;;;;;;0.47;0.10;;;9.20;99.90;;;;;;4988417;28;20033;-72
2021/12/02 05:02:44;;;;;;;4.45;0.20;;;9.20;99.90;;;;;;4970291;28;20338;-76
2021/12/02 05:05:10;;;;;;;0.70;0.20;;;9.30;99.90;;;;;;4973833;28;20026;-74
2021/12/02 05:07:36;;;;;;;2.17;0.15;;;9.20;99.90;;;;;;4966044;28;20317;-69
2021/12/02 05:10:04;;;;;;;0.30;0.00;;;9.20;99.90;;;;;;4972426;28;20030;-68
2021/12/02 05:12:30;;;;;;;0.40;0.00;;;9.20;99.90;;;;;;4969174;28;20033;-68
2021/12/02 05:17:40;;;;;;;3.03;1.17;;;9.20;99.90;;;;;;4970026;28;20086;-72
2021/12/02 05:20:06;;;;;;;1.90;0.28;;;9.20;99.90;;;;;;4961929;29;20027;-68
2021/12/02 05:22:32;;;;;;;1.77;0.05;;;9.20;99.90;;;;;;4982258;28;20018;-69
2021/12/02 05:24:58;;;;;;;2.67;0.10;;;9.20;99.90;;;;;;4969424;28;20023;-68
2021/12/02 05:27:24;;;;;;;0.68;0.10;;;9.20;99.90;;;;;;4985720;28;20026;-77
2021/12/02 05:29:49;;;;;;;0.40;0.10;;;9.20;99.90;;;;;;4986488;28;20022;-69
2021/12/02 05:32:15;;;;;;;3.30;0.10;;;9.20;99.90;;;;;;4986165;28;20045;-69
2021/12/02 05:34:41;;;;;;;2.78;0.10;;;9.20;99.90;;;;;;4985879;28;20293;-69
2021/12/02 05:37:06;;;;;;;0.75;0.10;;;9.20;99.90;;;;;;4986680;28;20036;-68
2021/12/02 05:39:32;;;;;;;1.75;0.22;;;9.20;99.90;;;;;;4985765;28;20081;-68
2021/12/02 05:41:58;;;;;;;1.23;0.10;;;9.20;99.90;;;;;;4968728;28;20309;-68
2021/12/02 05:44:24;;;;;;;2.15;0.10;;;9.20;99.90;;;;;;4986046;28;20029;-74
2021/12/02 05:46:50;;;;;;;2.70;0.10;;;9.20;99.90;;;;;;4986285;28;20077;-68
2021/12/02 05:49:16;;;;;;;0.30;0.03;;;9.20;99.90;;;;;;4986650;28;20077;-67
2021/12/02 05:51:42;;;;;;;1.15;0.05;;;9.20;99.90;;;;;;4967685;28;20078;-68
2021/12/02 05:54:09;;;;;;;0.28;0.08;;;9.20;99.90;;;;;;4986544;28;20260;-67
2021/12/02 05:56:35;;;;;;;0.30;0.00;;;9.20;99.90;;;;;;4967750;28;20302;-68
2021/12/02 05:59:00;;;;;;;1.75;0.10;;;9.20;99.90;;;;;;4987313;28;20069;-69
2021/12/02 06:01:26;;;;;;;0.20;0.00;;;9.20;99.90;;;;;;4986843;28;20023;-67
2021/12/02 06:03:52;;;;;;;0.43;0.03;;;9.30;99.90;;;;;;4965694;28;20316;-69
2021/12/02 06:06:18;;;;;;;0.52;0.10;;;9.30;99.90;;;;;;4986594;28;20015;-69
2021/12/02 06:08:44;;;;;;;0.57;0.10;;;9.20;99.90;;;;;;4974054;28;20286;-67
2021/12/02 06:11:10;;;;;;;1.00;0.10;;;9.20;99.90;;;;;;4979220;28;20018;-68
2021/12/02 06:13:37;;;;;;;0.25;0.10;;;9.20;99.90;;;;;;4984171;28;20127;-67
2021/12/02 06:16:03;;;;;;;0.70;0.10;;;9.20;99.90;;;;;;4988397;28;20018;-67
2021/12/02 06:18:28;;;;;;;1.27;0.50;;;9.30;99.90;;;;;;4984514;28;20061;-68
2021/12/02 06:20:54;;;;;;;0.52;0.10;;;9.20;99.90;;;;;;4985654;28;20022;-74
2021/12/02 06:23:22;;;;;;;1.40;0.20;;;9.20;99.90;;;;;;4969406;28;20027;-72
2021/12/02 06:25:48;;;;;;;4.32;0.25;;;9.20;99.90;;;;;;4987003;28;20019;-68
2021/12/02 06:28:18;;;;;;;4.43;0.95;;;9.20;99.90;;;;;;4968141;28;20041;-68
2021/12/02 06:30:45;;;;;;;0.68;0.10;;;9.30;99.90;;;;;;4984582;28;20022;-67
2021/12/02 06:33:12;;;;;;;0.43;0.10;;;9.30;99.90;;;;;;4968300;28;20306;-67
2021/12/02 06:35:39;;;;;;;1.05;0.20;;;9.30;99.90;;;;;;4984566;28;20026;-70
2021/12/02 06:38:06;;;;;;;7.32;0.60;;;9.30;99.90;;;;;;4985438;28;20030;-67
2021/12/02 06:40:34;;;;;;;4.75;0.10;;;9.30;99.90;;;;;;4967270;28;20053;-67
2021/12/02 06:42:59;;;;;;;1.77;0.30;;;9.20;99.90;;;;;;4968062;28;20023;-67
2021/12/02 06:45:25;;;;;;;1.20;0.35;;;9.20;99.90;;;;;;4984852;28;20037;-70
2021/12/02 06:47:53;;;;;;;1.67;0.25;;;9.20;99.90;;;;;;4967323;28;20022;-68
2021/12/02 06:50:20;;;;;;;0.90;0.20;;;9.20;99.90;;;;;;4964722;29;20385;-69
2021/12/02 06:52:51;;;;;;;0.95;0.35;;;9.10;99.90;;;;;;4963816;29;20085;-67
2021/12/02 06:55:18;;;;;;;1.92;0.20;;;9.10;99.90;;;;;;4965052;28;20023;-68
2021/12/02 06:57:44;;;;;;;4.82;0.30;;;9.10;99.90;;;;;;4965131;28;20469;-68
2021/12/02 07:00:13;;;;;;;1.58;0.20;;;9.10;99.90;;;;;;4964917;28;20034;-71
2021/12/02 07:02:58;;;;;;;7.03;0.30;;;9.10;99.90;;;;;;4968168;28;20041;-70
2021/12/02 07:05:24;;;;;;;8.35;0.40;;;9.10;99.90;;;;;;4967282;28;20026;-74
2021/12/02 07:07:50;;;;;;;6.53;0.57;;;9.10;99.90;;;;;;4949103;28;20026;-68
2021/12/02 07:10:19;;;;;;;4.35;0.40;;;9.10;99.90;;;;;;4956073;28;20019;-68
2021/12/02 07:12:49;;;;;;;1.75;0.57;;;9.10;99.90;;;;;;4962600;28;20029;-67
2021/12/02 07:15:26;;;;;;;4.15;0.40;;;9.10;99.90;;;;;;4957145;29;20031;-68
2021/12/02 07:17:59;;;;;;;8.45;0.30;;;9.10;99.90;;;;;;4962775;28;20067;-67
2021/12/02 07:20:29;;;;;;;1.85;0.20;;;9.10;99.90;;;;;;4957315;29;20035;-76
2021/12/02 07:22:55;;;;;;;0.35;0.10;;;9.10;99.90;;;;;;4962947;28;20019;-67
2021/12/02 07:25:21;;;;;;;2.85;0.35;;;9.20;99.90;;;;;;4963125;28;20019;-68
2021/12/02 07:27:47;;;;;;;2.53;0.20;;;9.20;99.90;;;;;;4950603;29;20340;-68
2021/12/02 07:30:14;;;;;;;2.30;0.20;;;9.10;99.90;;;;;;4963647;28;20027;-68
2021/12/02 07:32:40;;;;;;;1.15;0.20;;;9.10;99.90;;;;;;4963168;28;20186;-69
2021/12/02 07:35:11;;;;;;;2.20;0.30;;;9.10;99.90;;;;;;4963484;28;20050;-69
2021/12/02 07:37:40;;;;;;;1.05;0.20;;;9.10;99.90;;;;;;4960222;29;20098;-68
2021/12/02 07:40:06;;;;;;;5.93;0.35;;;9.10;99.90;;;;;;4953592;29;20026;-69
2021/12/02 07:42:32;;;;;;;4.47;0.50;;;9.20;99.90;;;;;;4962696;28;20205;-69
2021/12/02 07:44:58;;;;;;;5.85;0.38;;;9.10;99.90;;;;;;4963595;28;20015;-67
2021/12/02 07:47:27;;;;;;;5.30;0.60;;;9.10;99.90;;;;;;4947748;29;20031;-68
2021/12/02 07:49:54;;;;;;;13.25;1.10;;;9.20;99.90;;;;;;4963646;28;20042;-72
2021/12/02 07:52:23;;;;;;;3.28;0.20;;;9.20;99.90;;;;;;4964519;28;20023;-67
2021/12/02 07:54:53;;;;;;;6.45;0.52;;;9.10;99.90;;;;;;4963725;28;20030;-66
2021/12/02 07:57:19;;;;;;;5.65;0.70;;;9.20;99.90;;;;;;4951450;28;20042;-76
2021/12/02 07:59:48;;;;;;;6.38;1.08;;;9.20;99.90;;;;;;4958388;28;20186;-70
2021/12/02 08:02:16;;;;;;;2.88;0.50;;;9.20;99.90;;;;;;4974768;28;20014;-75
2021/12/02 08:04:41;;;;;;;4.05;0.30;;;9.20;99.90;;;;;;4955807;28;20018;-73
2021/12/02 08:07:07;;;;;;;3.22;0.20;;;9.30;99.90;;;;;;4980034;28;20023;-70
2021/12/02 08:09:33;;;;;;;8.80;0.65;;;9.30;99.90;;;;;;4956106;28;20073;-69
2021/12/02 08:12:00;;;;;;;4.68;0.40;;;9.30;99.90;;;;;;4959164;28;20294;-69
2021/12/02 08:14:26;;;;;;;4.22;0.45;;;9.30;99.90;;;;;;4952824;28;20047;-73
2021/12/02 08:16:53;;;;;;;4.20;1.13;;;9.30;99.90;;;;;;4957306;28;20015;-72
2021/12/02 08:19:19;;;;;;;3.88;0.63;;;9.30;99.90;;;;;;4971973;28;20019;-71
2021/12/02 08:21:45;;;;;;;2.83;1.08;;;9.30;99.90;;;;;;4975900;28;20022;-71
2021/12/02 08:24:11;;;;;;;8.25;1.02;;;9.30;99.90;;;;;;4960145;28;20098;-74
2021/12/02 08:26:37;;;;;;;2.80;0.55;;;9.30;99.90;;;;;;4970866;28;20044;-72
2021/12/02 08:29:04;;;;;;;5.50;0.50;;;9.30;99.90;;;;;;4957230;28;20294;-70
2021/12/02 08:31:30;;;;;;;8.55;0.50;;;9.30;99.90;;;;;;4951425;28;20023;-73
2021/12/02 08:33:56;;;;;;;7.72;0.40;;;9.30;99.90;;;;;;4978617;28;20045;-72
2021/12/02 08:36:26;;;;;;;12.38;1.42;;;9.30;99.90;;;;;;4957419;28;20318;-70
2021/12/02 08:38:52;;;;;;;2.60;0.22;;;9.30;99.90;;;;;;4954146;28;20023;-70
2021/12/02 08:41:19;;;;;;;2.78;0.90;;;9.30;99.90;;;;;;4971431;28;20042;-70
2021/12/02 08:43:46;;;;;;;2.35;0.52;;;9.30;99.90;;;;;;4958011;28;20385;-70
2021/12/02 08:46:12;;;;;;;3.70;0.20;;;9.40;99.90;;;;;;4954356;28;20302;-70
2021/12/02 08:48:38;;;;;;;1.55;0.30;;;9.40;99.90;;;;;;4953923;28;20082;-70
2021/12/02 08:51:04;;;;;;;1.55;0.30;;;9.40;99.90;;;;;;4972163;28;20047;-72
2021/12/02 08:53:29;;;;;;;2.38;0.30;;;9.30;99.90;;;;;;4970296;28;20121;-69
2021/12/02 08:55:55;;;;;;;1.33;0.22;;;9.40;99.90;;;;;;4968592;28;20042;-69
2021/12/02 08:58:21;;;;;;;1.80;0.30;;;9.40;99.90;;;;;;4953166;28;20026;-71
2021/12/02 09:00:46;;;;;;;2.13;0.63;;;9.40;99.90;;;;;;4953454;28;20186;-70
2021/12/02 09:03:15;;;;;;;2.83;0.28;;;9.50;99.90;;;;;;4957337;28;20027;-70
2021/12/02 09:05:43;;;;;;;0.70;0.17;;;9.40;99.90;;;;;;4957690;28;20054;-72
2021/12/02 09:08:09;;;;;;;0.80;0.15;;;9.40;99.90;;;;;;4973673;28;20106;-70
2021/12/02 09:10:36;;;;;;;1.08;0.50;;;9.40;99.90;;;;;;4953630;28;20023;-69
2021/12/02 09:13:07;;;;;;;3.92;0.30;;;9.40;99.90;;;;;;4958457;28;20018;-72
2021/12/02 09:15:37;;;;;;;3.40;0.68;;;9.30;99.90;;;;;;4958903;28;20015;-72
2021/12/02 09:18:03;;;;;;;2.65;0.40;;;9.40;99.90;;;;;;4954267;28;20034;-71
2021/12/02 09:20:29;;;;;;;0.55;0.13;;;9.40;99.90;;;;;;4972281;28;20015;-77
2021/12/02 09:22:55;;;;;;;4.18;0.40;;;9.40;99.90;;;;;;4978358;28;20045;-70
2021/12/02 09:25:22;;;;;;;0.77;0.40;;;9.40;99.90;;;;;;4972592;28;20026;-70
2021/12/02 09:27:48;;;;;;;1.35;0.20;;;9.40;99.90;;;;;;4975268;28;20349;-70
2021/12/02 09:30:14;;;;;;;5.43;1.05;;;9.40;99.90;;;;;;4953609;28;20054;-70
2021/12/02 09:32:40;;;;;;;5.10;0.65;;;9.40;99.90;;;;;;4978400;28;20297;-68
2021/12/02 09:35:08;;;;;;;2.00;0.30;;;9.40;99.90;;;;;;4966077;29;20285;-70
2021/12/02 09:37:36;;;;;;;3.75;0.40;;;9.30;99.90;;;;;;4966722;28;20035;-68
2021/12/02 09:40:04;;;;;;;0.95;0.22;;;9.30;99.90;;;;;;4963533;28;20027;-71
2021/12/02 09:42:30;;;;;;;1.55;0.40;;;9.30;99.90;;;;;;4967631;28;20023;-77
2021/12/02 09:45:00;;;;;;;2.60;0.40;;;9.30;99.90;;;;;;4984917;28;20022;-70
2021/12/02 09:47:29;;;;;;;0.40;0.10;;;9.30;99.90;;;;;;4967996;28;20371;-70
2021/12/02 09:49:59;;;;;;;0.90;0.30;;;9.40;99.90;;;;;;4958819;28;20031;-77
2021/12/02 09:52:35;;;;;;;0.88;0.22;;;9.30;99.90;;;;;;4962939;28;20050;-69
2021/12/02 09:55:22;;;;;;;1.85;0.20;;;9.30;99.90;;;;;;4963883;28;20034;-71
2021/12/02 09:57:54;;;;;;;3.90;1.13;;;9.30;99.90;;;;;;4980229;28;20038;-69
2021/12/02 10:00:25;;;;;;;6.63;0.50;;;9.30;99.90;;;;;;4966462;28;20153;-72
2021/12/02 10:03:38;;;;;;;2.45;0.55;;;9.30;99.90;;;;;;4962860;28;20078;-70
2021/12/02 10:05:43;;;;;;;2.92;0.30;;;9.30;99.90;;;;;;4968141;28;20482;-76
2021/12/02 10:08:12;;;;;;;0.50;0.22;;;9.30;99.90;;;;;;4990672;28;20018;-70
2021/12/02 10:10:55;;;;;;;4.38;1.42;;;9.30;99.90;;;;;;4992894;28;20305;-70
2021/12/02 10:16:16;;;;;;;2.78;0.70;;;9.20;99.90;;;;;;4994717;28;20014;-70
2021/12/02 10:21:27;;;;;;;2.25;0.40;;;9.20;99.90;;;;;;4988125;28;20022;-70
2021/12/02 10:23:53;;;;;;;3.25;0.30;;;9.20;99.90;;;;;;4992132;28;20119;-73
2021/12/02 10:26:22;;;;;;;3.25;0.50;;;9.20;99.90;;;;;;4993261;28;20018;-71
2021/12/02 10:28:51;;;;;;;1.25;0.55;;;9.20;99.90;;;;;;4975291;28;20123;-70
2021/12/02 10:31:24;;;;;;;3.47;0.70;;;9.10;99.90;;;;;;4974740;28;20019;-69
2021/12/02 10:33:54;;;;;;;1.92;0.60;;;9.10;99.90;;;;;;4992254;28;20018;-74
2021/12/02 10:36:27;;;;;;;3.95;0.40;;;9.20;99.90;;;;;;4990812;28;20015;-71
2021/12/02 10:38:56;;;;;;;3.45;0.80;;;9.10;99.90;;;;;;4988879;28;20030;-71
2021/12/02 10:41:25;;;;;;;3.03;1.38;;;9.10;99.90;;;;;;4994300;28;20337;-74
2021/12/02 10:44:28;;;;;;;2.97;1.05;;;9.10;99.90;;;;;;4968697;28;20300;-72
2021/12/02 10:47:03;;;;;;;1.38;0.40;;;9.10;99.90;;;;;;4959595;28;20060;-73
2021/12/02 10:49:33;;;;;;;2.97;0.77;;;9.10;99.90;;;;;;4965843;28;20344;-72
2021/12/02 10:52:03;;;;;;;3.33;0.73;;;9.10;99.90;;;;;;4962761;28;20055;-73
2021/12/02 10:54:35;;;;;;;1.45;0.40;;;9.10;99.90;;;;;;4984664;28;20023;-72
2021/12/02 10:57:19;;;;;;;1.95;0.70;;;9.10;99.90;;;;;;4967212;28;20053;-71
2021/12/02 10:59:49;;;;;;;2.75;0.70;;;9.10;99.90;;;;;;4962165;28;20198;-69
2021/12/02 11:02:18;;;;;;;2.72;0.82;;;9.10;99.90;;;;;;4960337;28;20113;-69
2021/12/02 11:04:49;;;;;;;2.00;0.57;;;9.10;99.90;;;;;;4966522;28;20015;-77
2021/12/02 11:07:25;;;;;;;2.35;0.52;;;9.10;99.90;;;;;;4985419;28;20026;-70
2021/12/02 11:09:53;;;;;;;2.42;0.70;;;9.10;99.90;;;;;;4964978;28;20301;-67
2021/12/02 11:12:40;;;;;;;2.60;0.90;;;9.10;99.90;;;;;;4986856;28;20018;-68
2021/12/02 11:15:09;;;;;;;2.33;0.70;;;9.10;99.90;;;;;;4963110;28;20254;-71
2021/12/02 11:17:39;;;;;;;;;;;9.20;99.90;;;;;;4961135;28;20034;-75
2021/12/02 11:20:08;;;;;;;0.98;0.30;;;9.20;99.90;;;;;;4963218;28;20084;-72
2021/12/02 11:22:34;;;;;;;3.13;0.50;;;9.10;99.90;;;;;;4984811;28;20022;-75
2021/12/02 11:25:01;;;;;;;5.63;0.80;;;9.10;99.90;;;;;;4964361;28;20025;-69
2021/12/02 11:27:50;;;;;;;2.47;0.90;;;9.10;99.90;;;;;;4985975;28;20027;-71
2021/12/02 11:30:37;;;;;;;1.48;0.50;;;9.10;99.90;;;;;;4975952;28;20031;-72
2021/12/02 11:33:04;;;;;;;3.42;0.90;;;9.10;99.90;;;;;;4985781;28;20042;-71
2021/12/02 11:35:40;;;;;;;2.10;0.70;;;9.10;99.90;;;;;;4989159;28;20021;-71
2021/12/02 11:38:10;;;;;;;1.48;0.50;;;9.10;99.90;;;;;;4958534;29;20377;-71
2021/12/02 11:40:42;;;;;;;5.28;0.63;;;9.00;99.90;;;;;;4965629;28;20059;-71
2021/12/02 11:43:11;;;;;;;5.35;1.30;;;9.00;99.90;;;;;;4964484;28;20042;-71
2021/12/02 11:45:43;;;;;;;5.82;1.33;;;9.10;99.90;;;;;;4965296;28;20129;-71
2021/12/02 11:48:11;;;;;;;3.90;0.68;;;9.10;99.90;;;;;;4982428;28;20023;-77
2021/12/02 11:50:37;;;;;;;4.65;1.30;;;9.00;99.90;;;;;;4962875;28;20108;-71
2021/12/02 11:53:03;;;;;;;2.33;0.80;;;9.00;99.90;;;;;;4965485;28;20035;-70
2021/12/02 11:55:33;;;;;;;1.10;0.40;;;9.00;99.90;;;;;;4964463;28;20076;-71
2021/12/02 11:58:00;;;;;;;1.75;0.70;;;9.00;99.90;;;;;;4962404;29;20038;-71
2021/12/02 12:00:28;;;;;;;1.52;0.47;;;9.10;99.90;;;;;;4961519;28;20030;-74
2021/12/02 12:03:01;;;;;;;3.63;0.63;;;9.10;99.90;;;;;;4982776;28;20302;-71
2021/12/02 12:05:31;;;;;;;2.63;0.50;;;9.00;99.90;;;;;;4961618;28;20147;-72
2021/12/02 12:07:57;;;;;;;4.72;1.52;;;9.00;99.90;;;;;;4982403;28;20253;-71
2021/12/02 12:10:35;;;;;;;3.05;0.35;;;9.00;99.90;;;;;;4982198;28;20018;-73
2021/12/02 12:13:20;;;;;;;3.83;0.60;;;9.00;99.90;;;;;;4982802;28;20018;-72
2021/12/02 12:15:53;;;;;;;3.53;0.50;;;8.90;99.90;;;;;;4963134;28;20027;-72
2021/12/02 12:18:39;;;;;;;1.00;0.30;;;8.90;99.90;;;;;;4982781;28;20056;-81
2021/12/02 12:21:07;;;;;;;2.65;0.60;;;8.90;99.90;;;;;;4961022;28;20117;-72
2021/12/02 12:23:40;;;;;;;1.70;0.52;;;8.90;99.90;;;;;;4961612;28;20063;-72
2021/12/02 12:26:13;;;;;;;6.05;1.55;;;8.90;99.90;;;;;;4965129;28;20019;-72
2021/12/02 12:29:04;;;;;;;2.97;0.40;;;8.80;99.90;;;;;;4964808;28;20035;-71
2021/12/02 12:31:38;;;;;;;3.30;0.50;;;8.80;99.90;;;;;;4980984;28;20021;-71
2021/12/02 12:40:42;;;;;;;5.25;1.02;;;8.80;99.90;;;;;;4986653;28;20033;-73
2021/12/02 12:43:07;;;;;;;3.28;0.70;;;8.80;99.90;;;;;;4975836;28;20103;-77
2021/12/02 12:45:39;;;;;;;5.65;1.08;;;8.80;99.90;;;;;;4983983;28;20233;-71
2021/12/02 12:48:07;;;;;;;4.40;0.57;;;8.80;99.90;;;;;;4969892;28;20034;-71
2021/12/02 12:50:40;;;;;;;2.88;0.88;;;8.80;99.90;;;;;;4974157;28;20047;-72
2021/12/02 12:53:13;;;;;;;9.10;1.00;;;8.80;99.90;;;;;;4987285;28;20026;-71
2021/12/02 12:55:53;;;;;;;4.85;1.17;;;8.80;99.90;;;;;;4990580;28;20015;-72
2021/12/02 12:58:27;;;;;;;6.65;0.70;;;8.80;99.90;;;;;;4956957;28;20146;-76
2021/12/02 13:01:24;;;;;;;5.75;1.67;;;8.80;99.90;;;;;;4950994;28;20034;-71
2021/12/02 13:04:03;;;;;;;5.45;0.68;;;8.80;99.90;;;;;;4950403;28;20019;-78
2021/12/02 13:06:32;;;;;;;4.05;0.60;;;8.80;99.90;;;;;;4950742;28;20027;-80
2021/12/02 13:09:03;;;;;;;2.97;0.60;;;8.80;99.90;;;;;;4962228;28;20060;-74
2021/12/02 13:11:31;;;;;;;4.05;0.50;;;8.70;99.90;;;;;;4960958;28;20348;-83
2021/12/02 13:13:57;;;;;;;;;;;8.70;99.90;;;;;;4972560;28;20051;-72
2021/12/02 13:16:23;;;;;;;2.25;0.30;;;8.70;99.90;;;;;;4969613;28;20093;-77
2021/12/02 13:18:52;;;;;;;5.03;0.95;;;8.70;99.90;;;;;;4968880;28;20037;-82
2021/12/02 13:21:21;;;;;;;3.58;0.40;;;8.80;99.90;;;;;;4956126;28;20031;-77
2021/12/02 13:24:06;;;;;;;1.35;0.25;;;8.70;99.90;;;;;;4952195;28;20107;-74
2021/12/02 13:26:38;;;;;;;1.58;0.30;;;8.70;99.90;;;;;;4954181;28;20340;-70
2021/12/02 13:29:07;;;;;;;2.63;0.95;;;8.70;99.90;;;;;;4970327;28;20030;-71
2021/12/02 13:31:34;;;;;;;3.90;0.40;;;8.70;99.90;;;;;;4970596;28;20022;-75
2021/12/02 13:34:09;;;;;;;4.93;0.55;;;8.70;99.90;;;;;;4953882;28;20294;-69
2021/12/02 13:36:37;;;;;;;3.33;0.57;;;8.70;99.90;;;;;;4967184;28;20018;-71